Time;durP1;ratioP1;P1;durP2;ratioP2;P2;SDS_P1;SDS_P2;PMS_P1;PMS_P2;Temp;Humidity;BMP_temperature;BMP_pressure;BME280_temperature;BME280_humidity;BME280_pressure;Samples;Min_cycle;Max_cycle;Signal;HPM_P1;HPM_P2
2021/10/26 00:00:32;;;;;;;36.33;15.53;;;5.50;99.90;;;;;;4380259;32;20230;-71
2021/10/26 00:02:59;;;;;;;30.30;14.53;;;5.40;99.90;;;;;;4380386;32;20518;-70
2021/10/26 00:05:26;;;;;;;29.47;14.67;;;5.50;99.90;;;;;;4379918;32;20177;-71
2021/10/26 00:07:52;;;;;;;29.90;15.37;;;5.40;99.90;;;;;;4380004;32;20202;-71
2021/10/26 00:10:19;;;;;;;29.03;14.63;;;5.40;99.90;;;;;;4379720;32;20191;-70
2021/10/26 00:12:46;;;;;;;29.93;14.57;;;5.50;99.90;;;;;;4379334;32;20190;-70
2021/10/26 00:15:13;;;;;;;30.53;14.73;;;5.50;99.90;;;;;;4379890;32;20199;-70
2021/10/26 00:17:40;;;;;;;31.37;14.90;;;5.50;99.90;;;;;;4377827;32;20180;-70
2021/10/26 00:20:08;;;;;;;31.73;14.63;;;5.50;99.90;;;;;;4379347;32;20161;-70
2021/10/26 00:22:34;;;;;;;33.20;14.87;;;5.50;99.90;;;;;;4377900;32;20504;-70
2021/10/26 00:25:02;;;;;;;31.43;14.60;;;5.50;99.90;;;;;;4380152;32;20145;-70
2021/10/26 00:27:28;;;;;;;27.30;14.73;;;5.50;99.90;;;;;;4380401;32;20168;-70
2021/10/26 00:29:55;;;;;;;26.47;14.77;;;5.40;99.90;;;;;;4377775;32;20211;-71
2021/10/26 00:32:22;;;;;;;32.03;14.43;;;5.40;99.90;;;;;;4377751;32;20372;-70
2021/10/26 00:34:49;;;;;;;31.53;14.27;;;5.40;99.90;;;;;;4379457;32;20191;-70
2021/10/26 00:37:16;;;;;;;29.30;13.93;;;5.40;99.90;;;;;;4381170;32;20392;-70
2021/10/26 00:39:44;;;;;;;31.33;14.80;;;5.40;99.90;;;;;;4379544;32;20202;-70
2021/10/26 00:42:11;;;;;;;31.80;14.77;;;5.40;99.90;;;;;;4378044;32;20183;-70
2021/10/26 00:44:39;;;;;;;29.20;14.63;;;5.30;99.90;;;;;;4379220;32;20239;-70
2021/10/26 00:47:06;;;;;;;28.00;13.70;;;5.30;99.90;;;;;;4377783;32;20188;-70
2021/10/26 00:49:34;;;;;;;30.03;14.40;;;5.30;99.90;;;;;;4379263;32;20266;-71
2021/10/26 00:52:02;;;;;;;31.07;14.13;;;5.20;99.90;;;;;;4379193;32;20181;-70
2021/10/26 00:54:29;;;;;;;29.40;14.10;;;5.30;99.90;;;;;;4378324;32;20459;-70
2021/10/26 00:56:58;;;;;;;30.33;14.03;;;5.20;99.90;;;;;;4379198;32;20468;-70
2021/10/26 00:59:25;;;;;;;28.63;13.80;;;5.20;99.90;;;;;;4379099;32;20189;-70
2021/10/26 01:01:52;;;;;;;31.73;14.20;;;5.20;99.90;;;;;;4379448;32;20240;-69
2021/10/26 01:04:19;;;;;;;28.63;13.43;;;5.20;99.90;;;;;;4378992;32;20220;-70
2021/10/26 01:06:46;;;;;;;29.07;13.30;;;5.20;99.90;;;;;;4377480;32;20181;-69
2021/10/26 01:09:15;;;;;;;32.17;13.90;;;5.20;99.90;;;;;;4379037;32;20235;-69
2021/10/26 01:11:43;;;;;;;29.47;13.83;;;5.10;99.90;;;;;;4377359;32;20196;-70
2021/10/26 01:14:10;;;;;;;25.53;13.23;;;5.10;99.90;;;;;;4377310;32;20399;-70
2021/10/26 01:16:37;;;;;;;29.53;13.97;;;5.10;99.90;;;;;;4378710;32;20191;-70
2021/10/26 01:19:04;;;;;;;30.37;13.67;;;5.10;99.90;;;;;;4378878;32;20227;-69
2021/10/26 01:21:31;;;;;;;27.43;13.27;;;5.20;99.90;;;;;;4380611;32;20294;-70
2021/10/26 01:23:58;;;;;;;29.73;13.50;;;5.20;99.90;;;;;;4380035;32;20493;-70
2021/10/26 01:26:25;;;;;;;30.27;13.93;;;5.10;99.90;;;;;;4377407;32;20256;-70
2021/10/26 01:28:53;;;;;;;27.43;13.13;;;5.20;99.90;;;;;;4379098;32;20261;-70
2021/10/26 01:31:20;;;;;;;28.77;13.73;;;5.10;99.90;;;;;;4378575;32;20201;-71
2021/10/26 01:33:47;;;;;;;28.40;13.33;;;5.10;99.90;;;;;;4376823;32;20181;-70
2021/10/26 01:36:22;;;;;;;30.80;14.20;;;5.10;99.90;;;;;;4376996;32;20180;-70
2021/10/26 01:38:49;;;;;;;29.27;13.57;;;5.00;99.90;;;;;;4379836;32;20188;-71
2021/10/26 01:41:16;;;;;;;26.40;13.47;;;5.00;99.90;;;;;;4376287;32;20185;-70
2021/10/26 01:43:43;;;;;;;27.53;13.40;;;5.00;99.90;;;;;;4377165;32;20214;-70
2021/10/26 01:46:10;;;;;;;27.27;13.20;;;4.90;99.90;;;;;;4378301;32;20193;-70
2021/10/26 01:48:37;;;;;;;27.60;13.20;;;4.90;99.90;;;;;;4378283;32;20607;-70
2021/10/26 01:51:04;;;;;;;25.83;12.73;;;4.90;99.90;;;;;;4378334;32;20231;-70
2021/10/26 01:53:31;;;;;;;27.83;13.27;;;4.90;99.90;;;;;;4378441;32;20264;-70
2021/10/26 01:55:57;;;;;;;30.77;13.73;;;4.90;99.90;;;;;;4378443;32;20216;-70
2021/10/26 01:58:24;;;;;;;30.13;12.33;;;4.90;99.90;;;;;;4376982;32;20232;-70
2021/10/26 02:00:51;;;;;;;24.80;12.47;;;4.90;99.90;;;;;;4378968;32;20299;-70
2021/10/26 02:03:18;;;;;;;25.57;12.20;;;4.80;99.90;;;;;;4378273;32;20386;-71
2021/10/26 02:05:45;;;;;;;26.63;13.27;;;4.90;99.90;;;;;;4378371;32;20207;-70
2021/10/26 02:08:12;;;;;;;25.97;13.40;;;4.80;99.90;;;;;;4376553;32;20186;-71
2021/10/26 02:10:38;;;;;;;25.93;12.90;;;4.80;99.90;;;;;;4378163;32;20270;-70
2021/10/26 02:13:05;;;;;;;27.00;12.67;;;4.90;99.90;;;;;;4376657;32;20188;-71
2021/10/26 02:15:33;;;;;;;28.40;13.23;;;4.80;99.90;;;;;;4379139;32;20206;-71
2021/10/26 02:18:00;;;;;;;30.30;12.97;;;4.70;99.90;;;;;;4378184;32;20253;-70
2021/10/26 02:20:27;;;;;;;29.67;13.07;;;4.70;99.90;;;;;;4379542;32;20168;-70
2021/10/26 02:22:54;;;;;;;27.40;12.40;;;4.70;99.90;;;;;;4377854;32;20234;-70
2021/10/26 02:25:21;;;;;;;27.07;12.83;;;4.70;99.90;;;;;;4377866;32;20193;-70
2021/10/26 02:27:48;;;;;;;29.43;12.73;;;4.70;99.90;;;;;;4378238;32;20184;-71
2021/10/26 02:30:14;;;;;;;25.33;12.43;;;4.70;99.90;;;;;;4378134;32;20249;-70
2021/10/26 02:32:41;;;;;;;29.13;12.97;;;4.60;99.90;;;;;;4377857;32;20212;-70
2021/10/26 02:35:08;;;;;;;27.93;13.13;;;4.60;99.90;;;;;;4376983;32;20237;-70
2021/10/26 02:37:35;;;;;;;26.23;13.43;;;4.60;99.90;;;;;;4377094;32;20211;-70
2021/10/26 02:40:04;;;;;;;28.07;13.50;;;4.60;99.90;;;;;;4378151;32;20243;-70
2021/10/26 02:42:31;;;;;;;27.77;12.90;;;4.50;99.90;;;;;;4376233;32;20256;-71
2021/10/26 02:45:05;;;;;;;25.33;12.50;;;4.50;99.90;;;;;;4377241;32;20248;-71
2021/10/26 02:47:32;;;;;;;29.63;14.17;;;4.50;99.90;;;;;;4376644;32;20224;-71
2021/10/26 02:50:08;;;;;;;27.67;13.50;;;4.50;99.90;;;;;;4377278;32;20248;-72
2021/10/26 02:52:47;;;;;;;29.07;13.27;;;4.40;99.90;;;;;;4378006;32;20202;-70
2021/10/26 02:55:27;;;;;;;26.50;12.50;;;4.30;99.90;;;;;;4377902;32;20176;-70
2021/10/26 02:58:11;;;;;;;28.00;13.47;;;4.30;99.90;;;;;;4376460;32;20208;-70
2021/10/26 03:00:56;;;;;;;25.47;12.33;;;4.30;99.90;;;;;;4375784;32;20284;-70
2021/10/26 03:03:28;;;;;;;28.27;12.97;;;4.30;99.90;;;;;;4376539;32;20192;-70
2021/10/26 03:06:05;;;;;;;29.60;12.40;;;4.30;99.90;;;;;;4377422;32;20151;-70
2021/10/26 03:09:08;;;;;;;32.23;12.50;;;4.20;99.90;;;;;;4333600;33;20184;-70
2021/10/26 03:11:48;;;;;;;26.90;13.03;;;4.20;99.90;;;;;;4332909;33;20186;-70
2021/10/26 03:14:17;;;;;;;30.00;13.03;;;4.10;99.90;;;;;;4335662;33;20257;-70
2021/10/26 03:16:50;;;;;;;26.50;13.00;;;4.10;99.90;;;;;;4335718;33;20213;-70
2021/10/26 03:19:17;;;;;;;25.97;12.90;;;4.10;99.90;;;;;;4337113;33;20294;-70
2021/10/26 03:21:45;;;;;;;28.53;13.13;;;4.10;99.90;;;;;;4337165;33;20234;-70
2021/10/26 03:24:12;;;;;;;27.37;12.57;;;4.00;99.90;;;;;;4337205;33;20520;-70
2021/10/26 03:26:39;;;;;;;27.47;12.67;;;4.00;99.90;;;;;;4337409;33;20292;-70
2021/10/26 03:29:06;;;;;;;25.10;12.93;;;4.00;99.90;;;;;;4336847;33;20470;-70
2021/10/26 03:31:41;;;;;;;28.37;13.23;;;4.00;99.90;;;;;;4330219;33;20201;-70
2021/10/26 03:34:11;;;;;;;26.23;13.30;;;3.90;99.90;;;;;;4322703;33;20265;-70
2021/10/26 03:36:41;;;;;;;25.57;12.13;;;4.00;99.90;;;;;;4320611;33;20183;-71
2021/10/26 03:39:13;;;;;;;26.43;12.60;;;4.00;99.90;;;;;;4333061;33;20245;-70
2021/10/26 03:41:56;;;;;;;27.23;12.37;;;4.00;99.90;;;;;;4321635;33;20583;-70
2021/10/26 03:44:43;;;;;;;22.37;11.93;;;3.90;99.90;;;;;;4319479;33;20233;-71
2021/10/26 03:47:10;;;;;;;25.13;12.07;;;4.00;99.90;;;;;;4365390;32;20216;-71
2021/10/26 03:49:36;;;;;;;26.43;12.47;;;3.90;99.90;;;;;;4365498;32;20183;-71
2021/10/26 03:52:03;;;;;;;24.37;12.60;;;3.90;99.90;;;;;;4364814;32;20206;-71
2021/10/26 03:54:30;;;;;;;23.17;12.07;;;3.80;99.90;;;;;;4365074;32;20199;-71
2021/10/26 03:56:57;;;;;;;25.00;12.27;;;3.90;99.90;;;;;;4365159;32;20175;-71
2021/10/26 03:59:29;;;;;;;27.53;12.60;;;3.80;99.90;;;;;;4364035;32;20213;-71
2021/10/26 04:02:04;;;;;;;25.47;12.13;;;3.80;99.90;;;;;;4365255;32;20224;-71
2021/10/26 04:04:31;;;;;;;26.20;12.57;;;3.80;99.90;;;;;;4364195;32;20428;-70
2021/10/26 04:07:04;;;;;;;25.90;12.00;;;3.80;99.90;;;;;;4363318;32;20233;-70
2021/10/26 04:09:51;;;;;;;26.90;12.70;;;3.80;99.90;;;;;;4363476;32;20182;-70
2021/10/26 04:12:26;;;;;;;24.87;12.13;;;3.80;99.90;;;;;;4364036;32;20191;-70
2021/10/26 04:15:02;;;;;;;26.70;12.00;;;3.80;99.90;;;;;;4362986;32;20237;-70
2021/10/26 04:17:46;;;;;;;25.20;12.10;;;3.80;99.90;;;;;;4362850;32;20189;-70
2021/10/26 04:20:19;;;;;;;24.33;12.10;;;3.70;99.90;;;;;;4365043;32;20466;-70
2021/10/26 04:23:04;;;;;;;24.87;12.07;;;3.70;99.90;;;;;;4365001;32;20227;-70
2021/10/26 04:25:46;;;;;;;24.87;12.50;;;3.70;99.90;;;;;;4362641;32;20186;-70
2021/10/26 04:28:19;;;;;;;27.63;12.33;;;3.70;99.90;;;;;;4364275;32;20198;-70
2021/10/26 04:31:15;;;;;;;26.93;12.20;;;3.70;99.90;;;;;;4362206;32;20211;-70
2021/10/26 04:33:46;;;;;;;23.87;12.10;;;3.70;99.90;;;;;;4362550;33;20186;-70
2021/10/26 04:36:22;;;;;;;30.80;12.43;;;3.80;99.90;;;;;;4362973;32;20188;-70
2021/10/26 04:39:13;;;;;;;26.30;12.57;;;3.80;99.90;;;;;;4362840;32;20208;-69
2021/10/26 04:41:48;;;;;;;24.93;12.20;;;3.80;99.90;;;;;;4376506;32;20184;-71
2021/10/26 04:44:28;;;;;;;27.27;12.73;;;3.70;99.90;;;;;;4377698;32;20202;-71
2021/10/26 04:47:25;;;;;;;32.00;12.77;;;3.80;99.90;;;;;;4377329;32;20203;-71
2021/10/26 04:49:54;;;;;;;24.17;12.03;;;3.80;99.90;;;;;;4377336;32;20195;-71
2021/10/26 04:52:49;;;;;;;25.87;12.07;;;3.80;99.90;;;;;;4377385;32;20191;-71
2021/10/26 04:55:29;;;;;;;23.80;12.17;;;3.80;99.90;;;;;;4378589;32;20564;-71
2021/10/26 04:58:05;;;;;;;27.30;12.40;;;3.80;99.90;;;;;;4377397;32;20180;-71
2021/10/26 05:00:44;;;;;;;23.87;12.53;;;3.80;99.90;;;;;;4376721;32;20212;-70
2021/10/26 05:03:32;;;;;;;26.13;12.20;;;3.80;99.90;;;;;;4377965;32;20451;-72
2021/10/26 05:06:03;;;;;;;21.43;11.60;;;3.80;99.90;;;;;;4377565;32;20177;-71
2021/10/26 05:08:52;;;;;;;23.67;12.37;;;3.80;99.90;;;;;;4377386;32;20249;-70
2021/10/26 05:11:36;;;;;;;22.50;11.50;;;3.80;99.90;;;;;;4376395;32;20196;-70
2021/10/26 05:14:12;;;;;;;22.23;11.77;;;3.80;99.90;;;;;;4371814;32;20385;-70
2021/10/26 05:16:56;;;;;;;27.10;11.93;;;3.90;99.90;;;;;;4373549;32;20205;-71
2021/10/26 05:19:45;;;;;;;26.43;12.77;;;3.90;99.90;;;;;;4376430;32;20568;-75
2021/10/26 05:22:18;;;;;;;25.83;12.20;;;3.80;99.90;;;;;;4376591;32;20224;-70
2021/10/26 05:24:50;;;;;;;26.30;12.60;;;3.80;99.90;;;;;;4378470;32;20183;-70
2021/10/26 05:27:43;;;;;;;22.50;11.60;;;3.80;99.90;;;;;;4378508;32;20210;-70
2021/10/26 05:30:22;;;;;;;24.47;11.67;;;3.90;99.90;;;;;;4376363;32;20310;-70
2021/10/26 05:33:08;;;;;;;23.37;11.70;;;3.90;99.90;;;;;;4376883;32;20253;-70
2021/10/26 05:35:40;;;;;;;21.80;12.07;;;3.90;99.90;;;;;;4376419;32;20248;-69
2021/10/26 05:38:13;;;;;;;23.90;11.90;;;3.90;99.90;;;;;;4376763;32;20552;-70
2021/10/26 05:40:45;;;;;;;25.47;11.63;;;3.80;99.90;;;;;;4378688;32;20465;-70
2021/10/26 05:43:23;;;;;;;26.43;12.00;;;3.80;99.90;;;;;;4376729;32;20181;-70
2021/10/26 05:46:00;;;;;;;23.83;12.43;;;3.90;99.90;;;;;;4376180;32;20238;-71
2021/10/26 05:48:52;;;;;;;27.47;12.30;;;3.90;99.90;;;;;;4377648;32;20379;-69
2021/10/26 05:51:35;;;;;;;23.40;11.57;;;4.00;99.90;;;;;;4378144;32;20211;-69
2021/10/26 05:54:13;;;;;;;21.03;11.10;;;4.00;99.90;;;;;;4377985;32;20592;-69
2021/10/26 05:56:51;;;;;;;24.63;11.97;;;4.00;99.90;;;;;;4378282;32;20187;-71
2021/10/26 05:59:30;;;;;;;23.43;12.27;;;4.00;99.90;;;;;;4376294;32;20524;-70
2021/10/26 06:02:54;;;;;;;23.27;11.43;;;4.00;99.90;;;;;;4376417;32;20468;-70
2021/10/26 06:05:31;;;;;;;25.40;11.90;;;4.00;99.90;;;;;;4370601;32;20184;-70
2021/10/26 06:08:18;;;;;;;23.53;11.50;;;4.00;99.90;;;;;;4377883;32;20172;-69
2021/10/26 06:11:10;;;;;;;23.70;11.87;;;4.00;99.90;;;;;;4379217;32;20189;-69
2021/10/26 06:14:12;;;;;;;22.27;11.50;;;4.10;99.90;;;;;;4333111;33;20191;-71
2021/10/26 06:19:54;;;;;;;22.40;11.37;;;4.10;99.90;;;;;;4316936;33;20192;-69
2021/10/26 06:22:32;;;;;;;24.77;11.90;;;4.10;99.90;;;;;;4305369;33;20186;-72
2021/10/26 06:25:25;;;;;;;23.27;11.57;;;4.20;99.90;;;;;;4302863;33;20169;-72
2021/10/26 06:27:54;;;;;;;28.87;11.97;;;4.30;99.90;;;;;;4317343;33;20486;-70
2021/10/26 06:30:33;;;;;;;25.17;11.70;;;4.30;99.90;;;;;;4303836;33;20213;-70
2021/10/26 06:33:10;;;;;;;22.23;11.53;;;4.30;99.90;;;;;;4304650;33;20247;-70
2021/10/26 06:35:42;;;;;;;22.40;11.30;;;4.40;99.90;;;;;;4303751;33;20177;-71
2021/10/26 06:38:13;;;;;;;21.67;11.87;;;4.40;99.90;;;;;;4317558;33;20167;-70
2021/10/26 06:40:52;;;;;;;24.30;12.57;;;4.40;99.90;;;;;;4303875;33;20563;-71
2021/10/26 06:43:28;;;;;;;21.27;11.43;;;4.40;99.90;;;;;;4305149;33;20216;-70
2021/10/26 06:46:00;;;;;;;24.83;12.03;;;4.50;99.90;;;;;;4330971;33;20382;-69
2021/10/26 06:48:44;;;;;;;20.83;11.50;;;4.60;99.90;;;;;;4321314;33;20204;-69
2021/10/26 06:51:18;;;;;;;24.30;11.80;;;4.70;99.90;;;;;;4321647;33;20226;-70
2021/10/26 06:54:07;;;;;;;22.00;11.57;;;4.80;99.90;;;;;;4322506;33;20236;-71
2021/10/26 06:56:42;;;;;;;22.73;11.90;;;4.80;99.90;;;;;;4346188;32;20488;-71
2021/10/26 07:02:25;;;;;;;23.23;11.43;;;5.00;99.90;;;;;;4380094;32;20529;-69
2021/10/26 07:05:12;;;;;;;24.17;12.33;;;5.10;99.90;;;;;;4379206;32;20229;-70
2021/10/26 07:07:54;;;;;;;21.83;11.90;;;5.20;99.90;;;;;;4380683;32;20262;-69
2021/10/26 07:13:51;;;;;;;22.83;10.93;;;5.30;99.90;;;;;;4321314;33;20227;-69
2021/10/26 07:16:30;;;;;;;21.10;10.73;;;5.30;99.90;;;;;;4333782;33;20177;-71
2021/10/26 07:19:17;;;;;;;20.73;11.50;;;5.40;99.90;;;;;;4321008;33;20192;-70
2021/10/26 07:21:52;;;;;;;22.73;10.93;;;5.50;99.90;;;;;;4334924;33;20205;-70
2021/10/26 07:24:30;;;;;;;24.00;11.20;;;5.50;99.90;;;;;;4334388;33;20481;-70
2021/10/26 07:27:06;;;;;;;21.53;11.73;;;5.60;99.90;;;;;;4320951;33;20216;-70
2021/10/26 07:29:44;;;;;;;23.40;11.50;;;5.70;99.90;;;;;;4320833;33;20189;-70
2021/10/26 07:32:29;;;;;;;24.07;11.70;;;5.80;99.90;;;;;;4333303;33;20390;-70
2021/10/26 07:35:05;;;;;;;20.37;10.90;;;5.90;99.90;;;;;;4321785;33;20254;-70
2021/10/26 07:37:56;;;;;;;22.77;10.90;;;6.00;99.90;;;;;;4334164;33;20180;-69
2021/10/26 07:40:37;;;;;;;19.67;11.00;;;6.20;99.90;;;;;;4320321;33;20188;-67
2021/10/26 07:43:15;;;;;;;22.37;11.37;;;6.40;99.90;;;;;;4334344;33;20180;-68
2021/10/26 07:45:50;;;;;;;21.00;10.57;;;6.50;99.90;;;;;;4333227;33;20197;-70
2021/10/26 07:48:29;;;;;;;23.23;11.10;;;6.70;99.90;;;;;;4320718;33;20229;-69
2021/10/26 07:51:07;;;;;;;21.33;11.13;;;7.10;99.90;;;;;;4366830;32;20191;-69
2021/10/26 07:53:41;;;;;;;22.03;11.23;;;7.50;99.90;;;;;;4378453;32;20206;-70
2021/10/26 07:56:22;;;;;;;18.33;10.33;;;8.00;99.90;;;;;;4379930;32;20248;-69
2021/10/26 07:59:05;;;;;;;18.40;10.90;;;8.40;99.90;;;;;;4380579;32;20300;-70
2021/10/26 08:01:40;;;;;;;26.37;11.10;;;8.50;99.90;;;;;;4379099;32;20191;-70
2021/10/26 08:04:17;;;;;;;17.63;10.20;;;8.70;99.90;;;;;;4379595;32;20553;-70
2021/10/26 08:06:47;;;;;;;18.43;9.87;;;8.90;99.90;;;;;;4378149;32;20279;-70
2021/10/26 08:09:30;;;;;;;17.60;9.47;;;9.20;99.90;;;;;;4377959;32;20207;-68
2021/10/26 08:12:06;;;;;;;21.03;10.10;;;9.50;99.90;;;;;;4377988;32;20221;-71
2021/10/26 08:14:41;;;;;;;19.70;9.57;;;9.70;99.90;;;;;;4379167;32;20408;-71
2021/10/26 08:17:21;;;;;;;16.83;9.37;;;9.80;99.90;;;;;;4379824;32;20263;-69
2021/10/26 08:20:03;;;;;;;17.23;9.83;;;9.90;99.90;;;;;;4378087;32;20237;-70
2021/10/26 08:23:07;;;;;;;21.47;9.50;;;10.00;99.90;;;;;;4378149;32;20183;-69
2021/10/26 08:25:44;;;;;;;21.50;9.33;;;10.20;99.90;;;;;;4377828;32;20452;-71
2021/10/26 08:28:26;;;;;;;14.70;8.97;;;10.20;99.90;;;;;;4378092;32;20214;-69
2021/10/26 08:31:26;;;;;;;18.27;9.17;;;10.50;99.90;;;;;;4377974;32;20273;-70
2021/10/26 08:34:16;;;;;;;16.30;9.37;;;10.80;99.90;;;;;;4377612;32;20227;-70
2021/10/26 08:36:51;;;;;;;21.17;9.40;;;10.90;99.90;;;;;;4379002;32;20270;-69
2021/10/26 08:39:30;;;;;;;17.23;9.50;;;10.90;99.90;;;;;;4377988;32;20575;-70
2021/10/26 08:42:05;;;;;;;16.77;9.03;;;11.20;99.90;;;;;;4377495;32;20247;-66
2021/10/26 08:44:36;;;;;;;18.07;9.30;;;11.50;99.90;;;;;;4377240;32;20227;-70
2021/10/26 08:47:19;;;;;;;15.07;8.97;;;11.70;99.90;;;;;;4378789;32;20179;-68
2021/10/26 08:50:03;;;;;;;17.73;9.83;;;11.90;99.90;;;;;;4377453;32;20262;-68
2021/10/26 08:52:48;;;;;;;16.83;8.93;;;12.30;99.90;;;;;;4377406;32;20191;-69
2021/10/26 08:56:04;;;;;;;19.47;8.97;;;12.60;99.90;;;;;;4376974;32;20253;-69
2021/10/26 08:58:55;;;;;;;17.87;8.93;;;12.80;99.90;;;;;;4379048;32;20354;-67
2021/10/26 09:02:15;;;;;;;15.17;7.80;;;13.30;99.90;;;;;;4378758;32;20421;-68
2021/10/26 09:04:56;;;;;;;17.73;8.30;;;13.50;99.90;;;;;;4333868;33;20198;-69
2021/10/26 09:08:01;;;;;;;15.83;8.00;;;13.50;99.90;;;;;;4336195;33;20231;-69
2021/10/26 09:11:26;;;;;;;14.67;8.00;;;13.60;99.90;;;;;;4345833;33;20195;-68
2021/10/26 09:17:26;;;;;;;15.27;8.23;;;14.00;99.90;;;;;;4302400;33;20258;-68
2021/10/26 09:20:30;;;;;;;14.30;7.70;;;14.30;99.90;;;;;;4303516;33;20578;-66
2021/10/26 09:23:26;;;;;;;13.47;7.27;;;14.60;99.90;;;;;;4304161;33;20536;-67
2021/10/26 09:26:02;;;;;;;15.20;8.07;;;14.50;99.90;;;;;;4301838;33;20236;-65
2021/10/26 09:28:58;;;;;;;13.53;8.10;;;14.60;99.90;;;;;;4259559;33;20186;-65
2021/10/26 09:31:30;;;;;;;12.50;7.67;;;14.60;99.90;;;;;;4259155;33;20250;-65
2021/10/26 09:34:08;;;;;;;13.20;7.80;;;14.30;99.90;;;;;;4258595;33;20216;-65
2021/10/26 09:36:39;;;;;;;13.27;7.70;;;14.10;99.90;;;;;;4259283;33;20224;-65
2021/10/26 09:39:11;;;;;;;14.53;8.07;;;13.90;99.90;;;;;;4258930;33;20175;-67
2021/10/26 09:42:00;;;;;;;15.37;7.77;;;13.90;99.90;;;;;;4260083;33;20199;-67
2021/10/26 09:44:40;;;;;;;15.10;7.90;;;14.10;99.90;;;;;;4259137;33;20189;-66
2021/10/26 09:47:23;;;;;;;15.53;8.07;;;14.10;99.90;;;;;;4308456;33;20203;-65
2021/10/26 09:49:53;;;;;;;13.67;7.60;;;14.00;99.90;;;;;;4338421;32;20177;-66
2021/10/26 09:52:49;;;;;;;10.50;7.07;;;14.00;99.90;;;;;;4379303;32;20208;-67
2021/10/26 09:55:23;;;;;;;11.23;6.70;;;14.00;99.90;;;;;;4376405;32;20202;-67
2021/10/26 09:57:58;;;;;;;13.17;7.73;;;14.30;99.90;;;;;;4376324;32;20203;-69
2021/10/26 10:00:42;;;;;;;14.63;7.00;;;14.40;99.90;;;;;;4376995;32;20222;-66
2021/10/26 10:03:19;;;;;;;11.13;6.97;;;14.50;99.90;;;;;;4376671;32;20179;-67
2021/10/26 10:05:55;;;;;;;13.47;7.30;;;14.50;99.90;;;;;;4376078;32;20214;-66
2021/10/26 10:08:34;;;;;;;11.17;6.97;;;14.60;99.90;;;;;;4378097;32;20190;-68
2021/10/26 10:11:24;;;;;;;12.33;6.80;;;14.60;99.90;;;;;;4376467;32;20239;-66
2021/10/26 10:14:05;;;;;;;11.83;7.23;;;14.70;99.90;;;;;;4376131;32;20242;-67
2021/10/26 10:16:36;;;;;;;12.37;7.10;;;14.50;99.90;;;;;;4377401;32;20247;-66
2021/10/26 10:19:26;;;;;;;13.40;6.70;;;14.30;99.90;;;;;;4375672;32;20239;-67
2021/10/26 10:22:07;;;;;;;17.77;7.00;;;14.30;99.90;;;;;;4377356;32;20183;-68
2021/10/26 10:24:41;;;;;;;10.93;6.50;;;14.70;99.90;;;;;;4376552;32;20212;-67
2021/10/26 10:27:13;;;;;;;11.53;6.50;;;14.90;99.90;;;;;;4377160;32;20206;-67
2021/10/26 10:29:51;;;;;;;11.67;6.80;;;15.00;98.50;;;;;;4375624;32;20192;-68
2021/10/26 10:32:29;;;;;;;14.60;7.40;;;14.90;98.60;;;;;;4376686;32;20225;-68
2021/10/26 10:35:03;;;;;;;9.60;6.30;;;15.00;98.50;;;;;;4376138;32;20202;-67
2021/10/26 10:37:56;;;;;;;15.20;6.90;;;15.20;98.20;;;;;;4373581;32;20189;-66
2021/10/26 10:40:28;;;;;;;11.23;6.60;;;15.00;98.30;;;;;;4376507;32;20534;-67
2021/10/26 10:42:57;;;;;;;11.13;7.13;;;14.80;98.50;;;;;;4374635;32;20216;-66
2021/10/26 10:45:31;;;;;;;14.57;7.33;;;14.70;98.70;;;;;;4379146;32;20215;-66
2021/10/26 10:47:59;;;;;;;10.40;6.83;;;14.90;98.50;;;;;;4378476;32;20533;-67
2021/10/26 10:50:29;;;;;;;12.53;6.90;;;15.20;98.40;;;;;;4377620;32;20199;-67
2021/10/26 10:53:10;;;;;;;10.33;6.40;;;15.00;97.70;;;;;;4375742;32;20188;-67
2021/10/26 10:55:39;;;;;;;11.20;7.13;;;15.10;97.90;;;;;;4378478;32;20170;-68
2021/10/26 10:58:27;;;;;;;11.33;6.33;;;15.30;97.60;;;;;;4376643;32;20231;-67
2021/10/26 11:01:17;;;;;;;12.70;6.57;;;15.60;97.50;;;;;;4375562;32;20481;-67
2021/10/26 11:03:44;;;;;;;11.33;6.13;;;15.60;96.30;;;;;;4376895;32;20198;-67
2021/10/26 11:06:42;;;;;;;12.70;6.47;;;15.70;96.10;;;;;;4375191;32;20187;-68
2021/10/26 11:09:28;;;;;;;11.40;6.40;;;15.60;95.60;;;;;;4377437;32;20210;-67
2021/10/26 11:12:11;;;;;;;10.67;6.07;;;15.50;96.00;;;;;;4377100;32;20205;-68
2021/10/26 11:14:56;;;;;;;11.30;6.47;;;15.30;95.70;;;;;;4376019;32;20266;-67
2021/10/26 11:17:35;;;;;;;10.20;6.30;;;15.10;95.80;;;;;;4377694;32;20210;-67
2021/10/26 11:20:09;;;;;;;10.50;6.63;;;15.20;96.60;;;;;;4377434;32;20598;-66
2021/10/26 11:22:45;;;;;;;9.73;6.13;;;15.30;96.10;;;;;;4377701;32;20521;-66
2021/10/26 11:25:35;;;;;;;10.27;6.47;;;15.50;96.00;;;;;;4376967;32;20236;-67
2021/10/26 11:28:25;;;;;;;10.20;6.27;;;15.40;95.60;;;;;;4377004;32;20199;-68
2021/10/26 11:30:55;;;;;;;10.80;6.30;;;15.30;95.80;;;;;;4376112;32;20381;-69
2021/10/26 11:33:24;;;;;;;13.10;6.17;;;15.00;96.30;;;;;;4364456;32;20205;-66
2021/10/26 11:36:05;;;;;;;9.87;6.33;;;15.10;95.90;;;;;;4377894;32;20225;-66
2021/10/26 11:38:50;;;;;;;13.03;7.33;;;15.20;96.30;;;;;;4380085;32;20541;-67
2021/10/26 11:41:28;;;;;;;15.33;6.90;;;15.40;96.00;;;;;;4379069;32;20179;-67
2021/10/26 11:43:58;;;;;;;9.30;6.17;;;15.50;96.00;;;;;;4378981;32;20234;-68
2021/10/26 11:46:25;;;;;;;10.00;6.70;;;15.80;95.60;;;;;;4380386;32;20206;-67
2021/10/26 11:48:53;;;;;;;11.00;6.20;;;15.90;95.30;;;;;;4378285;32;20203;-69
2021/10/26 11:51:41;;;;;;;10.63;6.23;;;15.80;95.00;;;;;;4378338;32;20477;-67
2021/10/26 11:54:28;;;;;;;11.67;6.30;;;15.90;94.60;;;;;;4378258;32;20237;-69
2021/10/26 11:57:01;;;;;;;19.47;6.57;;;16.00;94.20;;;;;;4380090;32;20530;-69
2021/10/26 11:59:29;;;;;;;14.30;7.50;;;16.10;94.00;;;;;;4378116;32;20254;-68
2021/10/26 12:02:03;;;;;;;10.87;6.30;;;16.10;93.00;;;;;;4378441;32;20183;-69
2021/10/26 12:04:36;;;;;;;9.77;6.07;;;15.70;93.60;;;;;;4379862;32;20191;-68
2021/10/26 12:07:16;;;;;;;12.60;6.40;;;15.40;93.80;;;;;;4378585;32;20207;-67
2021/10/26 12:09:48;;;;;;;11.60;6.70;;;15.40;94.10;;;;;;4380282;32;20188;-67
2021/10/26 12:12:27;;;;;;;11.50;6.10;;;15.30;94.60;;;;;;4378184;32;20225;-67
2021/10/26 12:14:56;;;;;;;9.53;5.93;;;15.40;94.70;;;;;;4379449;32;20227;-67
2021/10/26 12:17:30;;;;;;;10.93;6.57;;;15.20;94.50;;;;;;4379835;32;20234;-67
2021/10/26 12:20:28;;;;;;;11.77;6.53;;;15.00;94.50;;;;;;4379885;32;20218;-67
2021/10/26 12:22:57;;;;;;;12.03;6.40;;;14.60;94.60;;;;;;4377850;32;20231;-69
2021/10/26 12:25:30;;;;;;;11.13;6.67;;;14.30;95.60;;;;;;4377850;32;20230;-67
2021/10/26 12:27:59;;;;;;;10.47;6.63;;;14.20;96.00;;;;;;4379332;32;20180;-68
2021/10/26 12:30:32;;;;;;;12.53;6.40;;;14.40;96.10;;;;;;4378001;32;20492;-68
2021/10/26 12:33:17;;;;;;;11.53;6.50;;;14.70;95.90;;;;;;4378687;32;20214;-68
2021/10/26 12:35:53;;;;;;;13.80;6.93;;;15.30;95.40;;;;;;4380745;32;20293;-67
2021/10/26 12:38:29;;;;;;;11.63;6.53;;;15.70;94.70;;;;;;4379954;32;20191;-68
2021/10/26 12:41:08;;;;;;;12.03;6.47;;;16.20;94.40;;;;;;4377862;32;20175;-66
2021/10/26 12:43:36;;;;;;;14.87;7.00;;;16.90;93.10;;;;;;4379364;32;20195;-67
2021/10/26 12:46:22;;;;;;;15.27;7.97;;;16.60;92.90;;;;;;4377448;32;20258;-68
2021/10/26 12:48:52;;;;;;;14.50;7.40;;;16.20;93.80;;;;;;4379387;32;20514;-67
2021/10/26 12:51:22;;;;;;;13.43;7.57;;;16.00;94.30;;;;;;4377816;32;20207;-68
2021/10/26 12:53:49;;;;;;;15.43;7.30;;;15.80;94.80;;;;;;4379039;32;20167;-68
2021/10/26 12:56:20;;;;;;;13.60;7.57;;;15.60;95.00;;;;;;4379289;32;20234;-68
2021/10/26 12:58:52;;;;;;;13.33;7.57;;;15.30;95.70;;;;;;4378716;32;20550;-68
2021/10/26 13:01:29;;;;;;;12.37;7.17;;;15.20;95.60;;;;;;4379206;32;20613;-66
2021/10/26 13:04:15;;;;;;;16.80;7.83;;;15.30;96.00;;;;;;4378873;32;20225;-68
2021/10/26 13:06:54;;;;;;;14.50;8.07;;;15.30;95.80;;;;;;4379595;32;20522;-67
2021/10/26 13:09:38;;;;;;;13.37;7.77;;;15.20;95.90;;;;;;4378869;32;20206;-67
2021/10/26 13:12:27;;;;;;;15.30;7.57;;;15.00;95.80;;;;;;4377735;32;20226;-66
2021/10/26 13:15:08;;;;;;;15.97;7.77;;;14.60;96.40;;;;;;4378064;32;20183;-67
2021/10/26 13:17:47;;;;;;;18.53;8.20;;;14.40;97.10;;;;;;4377846;32;20561;-67
2021/10/26 13:20:47;;;;;;;13.13;7.30;;;14.20;97.70;;;;;;4378147;32;20447;-66
2021/10/26 13:23:24;;;;;;;14.93;7.43;;;14.10;97.90;;;;;;4378766;32;20215;-66
2021/10/26 13:25:56;;;;;;;13.97;7.80;;;14.00;98.50;;;;;;4378805;32;20196;-66
2021/10/26 13:28:29;;;;;;;14.70;7.97;;;14.00;98.50;;;;;;4376735;32;20229;-66
2021/10/26 13:30:59;;;;;;;17.47;7.97;;;13.80;98.40;;;;;;4377169;32;20617;-65
2021/10/26 13:33:27;;;;;;;16.57;8.20;;;13.60;98.70;;;;;;4377467;32;20187;-63
2021/10/26 13:35:56;;;;;;;14.00;7.90;;;13.50;99.30;;;;;;4377211;32;20187;-66
2021/10/26 13:38:25;;;;;;;14.53;7.93;;;13.50;99.40;;;;;;4378447;32;20234;-67